Terminal Aerodrome Forecast
Issued by NWS Anchorage, AK

Current Version | Previous Version | Text Only | Print | Product List | Glossary On
Versions: 1 2 3 4 5 6 7 8 9 10 11 12 13 14 15 16 17 18 19 20 21 22 23 24 25 26 27
920
FTAK31 PANC 302339
TAFANC
TAF
PANC 302339Z 3100/0106 01007KT P6SM FEW070
     FM310600 VRB06KT P6SM SKC
     FM312100 29006KT P6SM SKC=

USA.gov is the U.S. government's official web portal to all federal, state and local government web resources and services.